Cherry Valley, IL (61016)

1:37 AM CDT on August 30, 2015 (GMT -0500)
Valley View | | Change Station
CLOSE
Current Station
Personal Weather Station
Location: Cherry Valley, IL
Elevation: 778 ft
Nearby Weather Stations

Elev 778 ft 42.22 °N, 88.97 °W | Updated 8 minutes ago

Overcast
Overcast
64.9 °F
Feels Like 64.9 °F
N
1.1
Wind Variable Wind from East

Today
High -- | Low -- °F
--% Chance of Precip.
Yesterday
High -- | Low -- °F
Precip. -- in
6:18 AM 7:33 PM
Full, 100% visible
Pressure 30.05 in
Visibility 8.0 miles
Clouds Overcast 2800 ft
Dew Point 62 °F
Humidity 92%
Rainfall 0.00 in
Snow Depth Not available.
UV 0 out of 12
Pollen .70 out of 12
Air Quality Not available.
Flu Activity Not available.
METAR KRFD 300554Z 02005KT 8SM OVC028 19/17 A3006 RMK AO2 SLP175 60000 T01940172 10217 20194 402220167 55002
Pressure 30.05 in
Visibility 8.0 miles
Clouds Overcast 2800 ft
Dew Point 62 °F
Humidity 92%
Rainfall 0.00 in
Snow Depth Not available.
UV 0 out of 12
Pollen .70 out of 12
Air Quality Not available.
Flu Activity Not available.
METAR KRFD 300554Z 02005KT 8SM OVC028 19/17 A3006 RMK AO2 SLP175 60000 T01940172 10217 20194 402220167 55002

10-Day Weather Forecast

×

Almanac

Astronomy

Aug. 30, 2015 Rise Set
Actual Time
Civil Twilight
Nautical Twilight
Astronomical Twilight
Moon
Length of Visible Light
Length of Day
Tomorrow will be .
, % of the Moon is Illuminated

Today's Extremes

State Highs State Lows

Community

WunderPhotos

Upload Photos

1,850,904 photos uploaded!

WunderBlogs® & News

Nearby

Air Quality

  Air Quality AQ Index Pollutant
Not available.

Snow Depth

Station Depth Elevation

Earthquake Activity

City Distance Mag. Time & Date
Minimum magnitude displayed is 2.5.

Coastal Water Temperatures

Place Temperature

Stations

Nearby Weather Stations

Station Location Temp. Windchill Dew Point Humidity Wind Precip. Elev Updated Type